Tiempo atmosférico en la estación meteorológica de La Seo d?Urgell, Lleida (690 m.)



Fecha
DESCASC
Temp. máxima en grados centígrados (hora)
DESCASC
Temp. mínima en grados centígrados (hora)
DESCASC
Temp. media en grados centígrados
DESCASC
Racha de viento máxima en m/sg (hora)
DESCASC
Velocidad máxima media en intervalos de 10 minutos(hora)
DESCASC
Precipitaciones diarias en mm
DESCASC
Precipitaciones de 00:00 a 06:00 en mm
DESCASC
Precipitaciones de 06:00 a 12:00 en mm
DESCASC
Precipitaciones de 12:00 a 18:00 en mm
DESCASC
Precipitaciones de 18:00 a 24:00 en mm
DESCASC

Gráficas

Temp. máximas Temp. mínimas Temp. medias Precipitaciones Rachas de viento máximas Velocidades máximas media en intervalos de 10 minutos

Datos horarios

Fecha y hora oficial Temperatura (ºC) Velocidad del viento (km/h) Dirección del viento Racha (km/h) Dirección de racha Precipitación (mm) Presión (hPa) Tendencia (hPa) Humedad (%)
2019-02-17 23:00:00 0 2 Nordeste 4 Nordeste 0 -- -- 78
2019-02-17 22:00:00 1.4 0 Calma 9 Noroeste 0 -- -- 71
2019-02-17 21:00:00 2.8 0 Calma 5 Noroeste 0 -- -- 63
2019-02-17 20:00:00 5 0 Calma 7 Sudoeste 0 -- -- 51
2019-02-17 19:00:00 8.4 4 Sudoeste 8 Oeste 0 -- -- 37
2019-02-17 18:00:00 13.9 4 Oeste 18 Sudoeste 0 -- -- 25
2019-02-17 17:00:00 15.7 8 Oeste 18 Sudoeste 0 -- -- 23
2019-02-17 16:00:00 17.4 6 Oeste 20 Sudoeste 0 -- -- 21
2019-02-17 15:00:00 18 3 Sudoeste 9 Sur 0 -- -- 24
2019-02-17 14:00:00 15.2 3 Sudoeste 8 Sudoeste 0 -- -- 26
2019-02-17 13:00:00 12.6 0 Calma 9 Sudoeste 0 -- -- 31
2019-02-17 12:00:00 8.8 2 Sur 6 Sudoeste 0 -- -- 38
2019-02-17 11:00:00 5.7 0 Calma 5 Este 0 -- -- 51
2019-02-17 10:00:00 -1.5 0 Calma 5 Sur 0 -- -- 85
2019-02-17 09:00:00 -4.6 0 Calma 3 Sur 0 -- -- 93
2019-02-17 08:00:00 -5.3 0 Calma 5 Sudeste 0 -- -- 92
2019-02-17 07:00:00 -5.1 0 Calma 4 Norte 0 -- -- 92
2019-02-17 06:00:00 -4.6 0 Calma 3 Nordeste 0 -- -- 91
2019-02-17 05:00:00 -4.2 0 Calma 4 Noroeste 0 -- -- 89
2019-02-17 04:00:00 -3.9 0 Calma 4 Norte 0 -- -- 86
2019-02-17 03:00:00 -3.1 0 Calma 3 Nordeste 0 -- -- 84
2019-02-17 02:00:00 -2.5 0 Calma 5 Norte 0 -- -- 82
2019-02-17 01:00:00 -1.9 0 Calma 4 Nordeste 0 -- -- 80
2019-02-17 00:00:00 -1.4 0 Calma 4 Norte 0 -- -- 78
2019-02-16 23:00:00 -0.3 0 Calma 5 Noroeste 0 -- -- 74
2019-02-16 22:00:00 0.5 0 Calma 5 Noroeste 0 -- -- 69
2019-02-16 21:00:00 1.9 0 Calma 4 Norte 0 -- -- 64
2019-02-16 20:00:00 4 0 Calma 5 Este 0 -- -- 52
2019-02-16 19:00:00 7.5 0 Calma 6 Sudoeste 0 -- -- 38
2019-02-16 18:00:00 13.8 0 Calma 15 Oeste 0 -- -- 21
2019-02-16 17:00:00 16.9 6 Oeste 13 Noroeste 0 -- -- 17
2019-02-16 16:00:00 18.9 3 Noroeste 13 Noroeste 0 -- -- 19
2019-02-16 15:00:00 18 2 Sudoeste 9 Sudoeste 0 -- -- 23
2019-02-16 14:00:00 16 3 Sudoeste 8 Sur 0 -- -- 27
2019-02-16 13:00:00 12.4 0 Calma 7 Sudoeste 0 -- -- 33
2019-02-16 12:00:00 9.1 0 Calma 7 Sudoeste 0 -- -- 40
2019-02-16 11:00:00 5 3 Sudoeste 7 Sudoeste 0 -- -- 57
2019-02-16 10:00:00 -1.2 0 Calma 5 Sudoeste 0 -- -- 88
2019-02-16 09:00:00 -4 2 Nordeste 4 Nordeste 0 -- -- 94
2019-02-16 08:00:00 -5 0 Calma 4 Oeste 0 -- -- 94
2019-02-16 07:00:00 -4.8 0 Calma 5 Norte 0 -- -- 93
2019-02-16 06:00:00 -4.3 2 Norte 5 Nordeste 0 -- -- 92
2019-02-16 05:00:00 -3.9 0 Calma 3 Noroeste 0 -- -- 91
2019-02-16 04:00:00 -3.4 0 Calma 4 Norte 0 -- -- 89
2019-02-16 03:00:00 -2.9 0 Calma 3 Sudeste 0 -- -- 87
2019-02-16 02:00:00 -2.3 0 Calma 4 Este 0 -- -- 86
2019-02-16 01:00:00 -1.7 0 Calma 4 Nordeste 0 -- -- 83
2019-02-16 00:00:00 -1.2 0 Calma 4 Nordeste 0 -- -- 82
2019-02-15 23:00:00 -0.5 0 Calma 4 Nordeste 0 -- -- 78
2019-02-15 22:00:00 0.3 0 Calma 4 Norte 0 -- -- 74
2019-02-15 21:00:00 1.6 0 Calma 6 Norte 0 -- -- 68
2019-02-15 20:00:00 3.5 0 Calma 4 Sudeste 0 -- -- 59
2019-02-15 19:00:00 6.5 0 Calma 5 Sudoeste 0 -- -- 45
2019-02-15 18:00:00 11.4 2 Sudoeste 6 Sudoeste 0 -- -- 30
2019-02-15 17:00:00 15.9 4 Sudoeste 9 Sudoeste 0 -- -- 21
2019-02-15 16:00:00 17.9 5 Sudoeste 8 Noroeste 0 -- -- 21
2019-02-15 15:00:00 16.6 3 Sudoeste 10 Sudoeste 0 -- -- 23
2019-02-15 14:00:00 14.6 2 Sudoeste 8 Sur 0 -- -- 26
2019-02-15 13:00:00 11.5 3 Sur 9 Sur 0.2 -- -- 32
2019-02-15 12:00:00 8.7 3 Sur 6 Sudoeste 0 -- -- 38
2019-02-15 11:00:00 4.7 2 Sudeste 6 Sur 0 -- -- 56
2019-02-15 10:00:00 -1.9 2 Sur 4 Sudeste 0 -- -- 87
2019-02-15 09:00:00 -4.8 0 Calma 4 Este 0 -- -- 93
2019-02-15 08:00:00 -5.4 0 Calma 3 Noroeste 0 -- -- 93
2019-02-15 07:00:00 -5.3 0 Calma 5 Nordeste 0 -- -- 92
2019-02-15 06:00:00 -4.7 0 Calma 4 Nordeste 0 -- -- 90
2019-02-15 05:00:00 -4.2 0 Calma 3 Nordeste 0 -- -- 89
2019-02-15 04:00:00 -3.9 2 Norte 4 Nordeste 0 -- -- 88
2019-02-15 03:00:00 -3.1 0 Calma 3 Sudeste 0 -- -- 86
2019-02-15 02:00:00 -2.8 0 Calma 4 Sudeste 0 -- -- 84
2019-02-15 01:00:00 -2.1 0 Calma 5 Noroeste 0 -- -- 82
2019-02-15 00:00:00 -1.4 0 Calma 4 Nordeste 0 -- -- 78
2019-02-14 23:00:00 -0.6 0 Calma 6 Noroeste 0 -- -- 75
2019-02-14 22:00:00 0.3 0 Calma 4 Este 0 -- -- 71
2019-02-14 21:00:00 1.7 0 Calma 5 Noroeste 0 -- -- 64
2019-02-14 20:00:00 3.3 0 Calma 4 Norte 0 -- -- 54
2019-02-14 19:00:00 6.4 0 Calma 6 Sudoeste 0 -- -- 42
2019-02-14 18:00:00 11.3 4 Sudoeste 10 Oeste 0 -- -- 27
2019-02-14 17:00:00 15.6 4 Oeste 13 Noroeste 0 -- -- 19
2019-02-14 16:00:00 16.9 5 Sudoeste 10 Sudoeste 0 -- -- 21
2019-02-14 15:00:00 15.9 3 Sur 9 Sudoeste 0 -- -- 24
2019-02-14 14:00:00 14.1 3 Sur 7 Sur 0 -- -- 26
2019-02-14 13:00:00 11.1 3 Sudoeste 7 Sudoeste 0 -- -- 36
2019-02-14 12:00:00 7.8 2 Sur 6 Sudoeste 0 -- -- 47
2019-02-14 11:00:00 4.4 0 Calma 5 Sudeste 0 -- -- 67
2019-02-14 10:00:00 -1.5 3 Sudoeste 5 Sur 0 -- -- 95
2019-02-14 09:00:00 -4.1 0 Calma 4 Sudeste 0 -- -- 96
2019-02-14 08:00:00 -4.8 0 Calma 3 Norte 0 -- -- 95
2019-02-14 07:00:00 -4.5 0 Calma 3 Sudoeste 0 -- -- 95
2019-02-14 06:00:00 -4 0 Calma 4 Norte 0 -- -- 94
2019-02-14 05:00:00 -3.5 0 Calma 3 Nordeste 0 -- -- 93
2019-02-14 04:00:00 -3 0 Calma 2 Nordeste 0 -- -- 92
2019-02-14 03:00:00 -2.4 0 Calma 3 Sudeste 0 -- -- 91
2019-02-14 02:00:00 -1.9 0 Calma 4 Nordeste 0 -- -- 90
2019-02-14 01:00:00 -1.3 0 Calma 4 Nordeste 0 -- -- 88
2019-02-14 00:00:00 -0.6 0 Calma 5 Nordeste 0 -- -- 86
2019-02-13 23:00:00 0 0 Calma 3 Norte 0 -- -- 83
2019-02-13 22:00:00 1.1 0 Calma 4 Nordeste 0 -- -- 78
2019-02-13 21:00:00 2.4 0 Calma 3 Nordeste 0 -- -- 71
2019-02-13 20:00:00 4.4 0 Calma 3 Sur 0 -- -- 60
2019-02-13 19:00:00 7.7 3 Sudoeste 12 Noroeste 0 -- -- 43
2019-02-13 18:00:00 12.5 3 Oeste 12 Oeste 0 -- -- 31
2019-02-13 17:00:00 15.3 5 Oeste 12 Noroeste 0 -- -- 25
2019-02-13 16:00:00 16.8 0 Calma 10 Sur 0 -- -- 24
2019-02-13 15:00:00 15.5 4 Sudoeste 10 Sudoeste 0 -- -- 24
2019-02-13 14:00:00 13.6 3 Sudoeste 9 Sudoeste 0 -- -- 23
2019-02-13 13:00:00 10.8 2 Sudoeste 8 Sudoeste 0 -- -- 32
2019-02-13 12:00:00 7.3 2 Este 8 Sudoeste 0 -- -- 40
2019-02-13 11:00:00 4.1 0 Calma 5 Nordeste 0 -- -- 59
2019-02-13 10:00:00 -2.1 0 Calma 5 Sur 0 -- -- 90
2019-02-13 09:00:00 -4.8 0 Calma 3 Norte 0 -- -- 94
2019-02-13 08:00:00 -5.1 0 Calma 4 Noroeste 0 -- -- 93
2019-02-13 07:00:00 -4.6 0 Calma 4 Noroeste 0 -- -- 93
2019-02-13 06:00:00 -4.5 0 Calma 4 Noroeste 0 -- -- 92
2019-02-13 05:00:00 -4.2 3 Nordeste 6 Nordeste 0 -- -- 92
2019-02-13 04:00:00 -3.8 0 Calma 4 Nordeste 0 -- -- 91
2019-02-13 03:00:00 -3.2 0 Calma 4 Nordeste 0 -- -- 90
2019-02-13 02:00:00 -2.7 0 Calma 4 Noroeste 0 -- -- 89
2019-02-13 01:00:00 -2 0 Calma 4 Norte 0 -- -- 87
2019-02-13 00:00:00 -1.3 0 Calma 4 Norte 0 -- -- 85
2019-02-12 23:00:00 -0.6 0 Calma 4 Este 0 -- -- 83
2019-02-12 22:00:00 0.3 0 Calma 5 Noroeste 0 -- -- 79
2019-02-12 21:00:00 1.6 0 Calma 4 Este 0 -- -- 73
2019-02-12 20:00:00 3.3 0 Calma 3 Sudoeste 0 -- -- 64
2019-02-12 19:00:00 6.2 0 Calma 7 Sudoeste 0 -- -- 50
2019-02-12 18:00:00 10.1 5 Sudoeste 14 Sudoeste 0 -- -- 37
2019-02-12 17:00:00 13.1 8 Sudoeste 14 Sudoeste 0 -- -- 29
2019-02-12 16:00:00 15.6 4 Oeste 11 Sudoeste 0 -- -- 21
2019-02-12 15:00:00 15.4 5 Sudoeste 10 Sudoeste 0 -- -- 22
2019-02-12 14:00:00 13.6 4 Sur 9 Sur 0 -- -- 27
2019-02-12 13:00:00 11 2 Sur 9 Sur 0 -- -- 35
2019-02-12 12:00:00 8.1 3 Sudoeste 8 Oeste 0 -- -- 41
2019-02-12 11:00:00 5 0 Calma 7 Nordeste 0 -- -- 60
2019-02-12 10:00:00 -1.3 3 Sur 8 Noroeste 0 -- -- 90
2019-02-12 09:00:00 -3.6 0 Calma 4 Sur 0 -- -- 94
2019-02-12 08:00:00 -4.6 2 Norte 6 Sur 0 -- -- 93
2019-02-12 07:00:00 -4.2 0 Calma 6 Noroeste 0 -- -- 93
2019-02-12 06:00:00 -3.8 0 Calma 6 Oeste 0 -- -- 92
2019-02-12 05:00:00 -3.4 0 Calma 6 Norte 0 -- -- 90
2019-02-12 04:00:00 -3.1 0 Calma 6 Noroeste 0 -- -- 89
2019-02-12 03:00:00 -2.6 2 Sudoeste 5 Sudoeste 0 -- -- 86
2019-02-12 02:00:00 -2.2 0 Calma 5 Nordeste 0 -- -- 84
2019-02-12 01:00:00 -1.4 0 Calma 5 Nordeste 0 -- -- 81
2019-02-12 00:00:00 -1 0 Calma 6 Este 0 -- -- 79
2019-02-11 23:00:00 -0.2 0 Calma 6 Noroeste 0 -- -- 75
2019-02-11 22:00:00 0.7 0 Calma 5 Este 0 -- -- 70
2019-02-11 21:00:00 2.1 0 Calma 9 Nordeste 0 -- -- 62
2019-02-11 20:00:00 4 0 Calma 6 Nordeste 0 -- -- 51
2019-02-11 19:00:00 6.8 0 Calma 13 Sudoeste 0 -- -- 37
2019-02-11 18:00:00 9.9 5 Oeste 22 Oeste 0 -- -- 28
2019-02-11 17:00:00 11.1 9 Oeste 28 Oeste 0 -- -- 26
2019-02-11 16:00:00 12.8 8 Noroeste 25 Oeste 0 -- -- 25
2019-02-11 15:00:00 13.1 8 Oeste 28 Sudoeste 0 -- -- 26
2019-02-11 14:00:00 13.1 10 Oeste 33 Sudoeste 0 -- -- 26
2019-02-11 13:00:00 12.6 9 Oeste 28 Sudoeste 0 -- -- 28
2019-02-11 12:00:00 11.7 8 Sudoeste 17 Sudoeste 0 -- -- 32
2019-02-11 11:00:00 8.2 0 Calma 8 Sur 0 -- -- 51
2019-02-11 10:00:00 1.4 0 Calma 4 Nordeste 0 -- -- 75
2019-02-11 09:00:00 -1.4 2 Nordeste 5 Noroeste 0 -- -- 87
2019-02-11 08:00:00 -1.9 0 Calma 5 Nordeste 0 -- -- 85
2019-02-11 07:00:00 -1.3 0 Calma 5 Noroeste 0 -- -- 81
2019-02-11 06:00:00 -0.5 0 Calma 5 Norte 0 -- -- 78
2019-02-11 05:00:00 0.3 0 Calma 8 Nordeste 0 -- -- 75
2019-02-11 04:00:00 1.1 2 Nordeste 6 Nordeste 0 -- -- 73
2019-02-11 03:00:00 2.4 2 Nordeste 12 Nordeste 0 -- -- 71
2019-02-11 02:00:00 3 0 Calma 10 Sudeste 0 -- -- 70
2019-02-11 01:00:00 4.7 4 Este 18 Sudeste 0 -- -- 68
2019-02-11 00:00:00 4.2 0 Calma 9 Sur 0 -- -- 71
2019-02-10 23:00:00 5.7 2 Nordeste 9 Nordeste 0 -- -- 65
2019-02-10 22:00:00 7.2 2 Nordeste 17 Nordeste 0 -- -- 63
2019-02-10 21:00:00 7.8 0 Calma 8 Nordeste 0 -- -- 65
2019-02-10 20:00:00 9.6 4 Sudoeste 10 Sudoeste 0 -- -- 57
2019-02-10 19:00:00 11.5 5 Oeste 17 Sudoeste 0 -- -- 49
2019-02-10 18:00:00 13.1 6 Sudoeste 18 Sur 0 -- -- 43
2019-02-10 17:00:00 14.2 7 Sur 19 Sur 0 -- -- 40
2019-02-10 16:00:00 15.3 9 Sur 24 Sudoeste 0 -- -- 38
2019-02-10 15:00:00 16.1 4 Sudoeste 12 Oeste 0 -- -- 39
2019-02-10 14:00:00 13.6 0 Calma 10 Sudoeste 0 -- -- 45
2019-02-10 13:00:00 10 2 Oeste 8 Noroeste 0 -- -- 57
2019-02-10 12:00:00 7.2 3 Sudeste 9 Sudoeste 0 -- -- 75
2019-02-10 11:00:00 3.5 2 Sudoeste 5 Sudoeste 0 -- -- 94
2019-02-10 10:00:00 1.2 0 Calma 5 Sudoeste 0 -- -- 97
2019-02-10 09:00:00 -0.5 0 Calma 4 Nordeste 0 -- -- 96
2019-02-10 08:00:00 -1.5 0 Calma 4 Sur 0 -- -- 96
2019-02-10 07:00:00 -0.9 2 Nordeste 4 Nordeste 0 -- -- 96
2019-02-10 06:00:00 0 0 Calma 5 Sur 0 -- -- 96
2019-02-10 05:00:00 0.2 0 Calma 5 Nordeste 0 -- -- 95
2019-02-10 04:00:00 0.5 0 Calma 4 Nordeste 0 -- -- 95
2019-02-10 03:00:00 0.7 0 Calma 4 Nordeste 0 -- -- 94
2019-02-10 02:00:00 0.8 0 Calma 4 Sur 0 -- -- 92
2019-02-10 01:00:00 1.5 0 Calma 5 Sudeste 0 -- -- 91
2019-02-10 00:00:00 2 0 Calma 3 Oeste 0 -- -- 89
2019-02-09 23:00:00 2.4 0 Calma 5 Noroeste 0 -- -- 87
2019-02-09 22:00:00 3.1 0 Calma 3 Este 0 -- -- 83
2019-02-09 21:00:00 4 0 Calma 3 Sudeste 0 -- -- 76
2019-02-09 20:00:00 6 0 Calma 6 Sudoeste 0 -- -- 65
2019-02-09 19:00:00 9.9 2 Sudoeste 14 Norte 0 -- -- 51
2019-02-09 18:00:00 12 5 Noroeste 15 Sudoeste 0 -- -- 43
2019-02-09 17:00:00 14.4 6 Sudoeste 18 Sudoeste 0 -- -- 36
2019-02-09 16:00:00 15.4 7 Oeste 19 Sudoeste 0 -- -- 33
2019-02-09 15:00:00 16.1 4 Oeste 14 Noroeste 0 -- -- 32
2019-02-09 14:00:00 14.6 3 Sur 11 Oeste 0 -- -- 36
2019-02-09 13:00:00 12.7 4 Sur 8 Sudoeste 0 -- -- 40
2019-02-09 12:00:00 9.9 0 Calma 5 Sudoeste 0 -- -- 47
2019-02-09 11:00:00 6.6 2 Sur 6 Sur 0 -- -- 77
2019-02-09 10:00:00 1.3 0 Calma 4 Sur 0 -- -- 96
2019-02-09 09:00:00 -0.8 0 Calma 4 Noroeste 0 -- -- 96
2019-02-09 08:00:00 -1.1 0 Calma 4 Nordeste 0 -- -- 96
2019-02-09 07:00:00 -1.2 0 Calma 6 Nordeste 0 -- -- 95
2019-02-09 06:00:00 -1.1 0 Calma 5 Este 0 -- -- 95
2019-02-09 05:00:00 -0.8 0 Calma 5 Norte 0 -- -- 95
2019-02-09 04:00:00 -0.6 0 Calma 5 Nordeste 0 -- -- 94
2019-02-09 03:00:00 -0.1 0 Calma 4 Nordeste 0 -- -- 94
2019-02-09 02:00:00 -0.1 2 Nordeste 5 Este 0 -- -- 93
2019-02-09 01:00:00 0.2 2 Nordeste 5 Noroeste 0 -- -- 92
2019-02-09 00:00:00 0.2 0 Calma 4 Nordeste 0 -- -- 90
2019-02-08 23:00:00 0.7 0 Calma 5 Nordeste 0 -- -- 88
2019-02-08 22:00:00 1.6 0 Calma 8 Nordeste 0 -- -- 85
2019-02-08 21:00:00 2.8 0 Calma 4 Noroeste 0 -- -- 79
2019-02-08 20:00:00 4.6 0 Calma 4 Sur 0 -- -- 70
2019-02-08 19:00:00 7.2 0 Calma 5 Sudoeste 0 -- -- 58
2019-02-08 18:00:00 11.2 4 Sudoeste 8 Sudoeste 0 -- -- 44
2019-02-08 17:00:00 14 4 Sudoeste 10 Noroeste 0 -- -- 36
2019-02-08 16:00:00 14.4 5 Oeste 10 Sudoeste 0 -- -- 38
2019-02-08 15:00:00 14.9 4 Sur 9 Sudoeste 0 -- -- 39
2019-02-08 14:00:00 12 3 Sudoeste 11 Sudoeste 0 -- -- 42
2019-02-08 13:00:00 10.9 4 Sudoeste 8 Sudoeste 0 -- -- 47
2019-02-08 12:00:00 7.2 2 Sudoeste 7 Sur 0 -- -- 64
2019-02-08 11:00:00 4.1 3 Sudoeste 6 Sudoeste 0 -- -- 93
2019-02-08 10:00:00 0 0 Calma 3 Norte 0 -- -- 96
2019-02-08 09:00:00 -1.2 0 Calma 3 Este 0 -- -- 96
2019-02-08 08:00:00 -1.6 0 Calma 3 Nordeste 0 -- -- 96
2019-02-08 07:00:00 -1.4 0 Calma 4 Nordeste 0 -- -- 96
2019-02-08 06:00:00 -1.1 0 Calma 4 Norte 0 -- -- 96
2019-02-08 05:00:00 -0.5 0 Calma 3 Sudoeste 0 -- -- 95
2019-02-08 04:00:00 -0.1 0 Calma 3 Este 0 -- -- 95
2019-02-08 03:00:00 -0.1 0 Calma 5 Nordeste 0 -- -- 95
2019-02-08 02:00:00 -0.4 2 Sudoeste 5 Sudoeste 0 -- -- 94
2019-02-08 01:00:00 0 0 Calma 3 Nordeste 0 -- -- 92
2019-02-08 00:00:00 0.5 0 Calma 4 Nordeste 0 -- -- 91
2019-02-07 23:00:00 1.4 0 Calma 4 Sur 0 -- -- 88
2019-02-07 22:00:00 2.6 0 Calma 3 Sur 0 -- -- 85
2019-02-07 21:00:00 4 0 Calma 5 Nordeste 0 -- -- 77
2019-02-07 20:00:00 6.7 2 Nordeste 12 Sudoeste 0 -- -- 67
2019-02-07 19:00:00 10 4 Oeste 17 Sudoeste 0 -- -- 58
2019-02-07 18:00:00 12.3 4 Oeste 12 Oeste 0 -- -- 47
2019-02-07 17:00:00 13.5 5 Noroeste 14 Noroeste 0 -- -- 43
2019-02-07 16:00:00 16 6 Oeste 14 Noroeste 0 -- -- 38
2019-02-07 15:00:00 15.6 4 Sudoeste 9 Sudoeste 0 -- -- 38
2019-02-07 14:00:00 13.7 5 Sur 11 Sur 0 -- -- 42
2019-02-07 13:00:00 11.6 0 Calma 8 Sudoeste 0 -- -- 45
2019-02-07 12:00:00 8.3 0 Calma 8 Sur 0 -- -- 60
2019-02-07 11:00:00 5 3 Sudoeste 6 Sur 0 -- -- 91
2019-02-07 10:00:00 1.4 3 Nordeste 6 Este 0 -- -- 97
2019-02-07 09:00:00 -0.2 0 Calma 5 Nordeste 0 -- -- 97
2019-02-07 08:00:00 -0.7 0 Calma 4 Norte 0 -- -- 97
2019-02-07 07:00:00 -1.1 0 Calma 5 Sudoeste 0 -- -- 96
2019-02-07 06:00:00 -1.5 0 Calma 4 Norte 0 -- -- 96
2019-02-07 05:00:00 -1.5 3 Nordeste 5 Nordeste 0 -- -- 95
2019-02-07 04:00:00 -1 0 Calma 4 Noroeste 0 -- -- 95
2019-02-07 03:00:00 -0.3 0 Calma 5 Norte 0 -- -- 95
2019-02-07 02:00:00 -0.2 0 Calma 4 Nordeste 0 -- -- 94
2019-02-07 01:00:00 0.2 0 Calma 5 Noroeste 0 -- -- 93
2019-02-07 00:00:00 0.7 0 Calma 4 Norte 0 -- -- 91
2019-02-06 23:00:00 1.6 0 Calma 3 Sur 0 -- -- 90
2019-02-06 22:00:00 2.4 0 Calma 4 Noroeste 0 -- -- 87
2019-02-06 21:00:00 3.3 0 Calma 3 Noroeste 0 -- -- 82
2019-02-06 20:00:00 4.8 0 Calma 4 Este 0 -- -- 75
2019-02-06 19:00:00 7.5 0 Calma 7 Sudoeste 0 -- -- 63
2019-02-06 18:00:00 11.7 5 Sudoeste 12 Sudoeste 0 -- -- 47
2019-02-06 17:00:00 15.3 5 Sudoeste 12 Sudoeste 0 -- -- 38
2019-02-06 16:00:00 16.7 3 Sur 12 Sudoeste 0 -- -- 34
2019-02-06 15:00:00 17.1 4 Sur 9 Sudoeste 0 -- -- 34
2019-02-06 14:00:00 14.9 2 Sudoeste 9 Sudoeste 0 -- -- 40
2019-02-06 13:00:00 11.9 3 Sudoeste 8 Sudoeste 0 -- -- 50
2019-02-06 12:00:00 7.8 3 Sudoeste 7 Sudoeste 0 -- -- 68
2019-02-06 11:00:00 4.8 3 Sur 6 Sur 0 -- -- 96
2019-02-06 10:00:00 0.3 3 Nordeste 5 Sudoeste 0 -- -- 96
2019-02-06 09:00:00 -2.1 0 Calma 5 Norte 0 -- -- 96
2019-02-06 08:00:00 -2.3 0 Calma 6 Norte 0 -- -- 96
2019-02-06 07:00:00 -2 0 Calma 4 Nordeste 0 -- -- 96
2019-02-06 06:00:00 -1.7 0 Calma 5 Noroeste 0 -- -- 96
2019-02-06 05:00:00 -1.3 0 Calma 5 Noroeste 0 -- -- 96
2019-02-06 04:00:00 -0.9 0 Calma 4 Noroeste 0 -- -- 95
2019-02-06 03:00:00 -0.6 0 Calma 4 Nordeste 0 -- -- 95
2019-02-06 02:00:00 -0.1 0 Calma 4 Norte 0 -- -- 94
2019-02-06 01:00:00 0.7 0 Calma 5 Sur 0 -- -- 93
2019-02-06 00:00:00 1.3 0 Calma 5 Sur 0 -- -- 91
2019-02-05 23:00:00 2.4 0 Calma 6 Norte 0 -- -- 89
2019-02-05 22:00:00 3.4 0 Calma 7 Nordeste 0 -- -- 86
2019-02-05 21:00:00 4.1 2 Sudoeste 6 Sudoeste 0 -- -- 82
2019-02-05 20:00:00 5.3 0 Calma 6 Norte 0 -- -- 74
2019-02-05 19:00:00 7.7 0 Calma 7 Norte 0 -- -- 66
2019-02-05 18:00:00 10.9 2 Sudoeste 8 Nordeste 0 -- -- 56
2019-02-05 17:00:00 12.2 3 Este 10 Este 0 -- -- 50
2019-02-05 16:00:00 14.2 4 Este 12 Sudeste 0 -- -- 44
2019-02-05 15:00:00 15.8 3 Sudoeste 10 Noroeste 0 -- -- 43
2019-02-05 14:00:00 13 4 Sudoeste 10 Sur 0 -- -- 44
2019-02-05 13:00:00 12.3 3 Sudoeste 7 Sur 0 -- -- 46
2019-02-05 12:00:00 7.8 0 Calma 8 Sur 0 -- -- 51
2019-02-05 11:00:00 4.8 3 Este 7 Este 0 -- -- 65
2019-02-05 10:00:00 0.1 2 Sur 7 Sudoeste 0 -- -- 85
2019-02-05 09:00:00 -1.2 0 Calma 5 Sudoeste 0 -- -- 89
2019-02-05 08:00:00 -1.6 0 Calma 5 Nordeste 0 -- -- 89
2019-02-05 07:00:00 -1.5 0 Calma 5 Noroeste 0 -- -- 88
2019-02-05 06:00:00 -1.1 2 Nordeste 6 Nordeste 0 -- -- 87
2019-02-05 05:00:00 -1.4 2 Sudoeste 8 Norte 0 -- -- 86
2019-02-05 04:00:00 -1.5 0 Calma 6 Norte 0 -- -- 86
2019-02-05 03:00:00 -0.8 0 Calma 5 Noroeste 0 -- -- 84
2019-02-05 02:00:00 -0.4 0 Calma 5 Nordeste 0 -- -- 83
2019-02-05 01:00:00 -0.3 0 Calma 4 Norte 0 -- -- 81
2019-02-05 00:00:00 0 2 Nordeste 6 Nordeste 0 -- -- 78
2019-02-04 23:00:00 0.6 0 Calma 3 Nordeste 0 -- -- 75
2019-02-04 22:00:00 1.1 0 Calma 4 Noroeste 0 -- -- 72
2019-02-04 21:00:00 2.1 0 Calma 4 Nordeste 0 -- -- 66
2019-02-04 20:00:00 3.7 0 Calma 6 Nordeste 0 -- -- 59
2019-02-04 19:00:00 5.5 0 Calma 5 Nordeste 0 -- -- 49
2019-02-04 18:00:00 7.7 0 Calma 7 Oeste 0 -- -- 37
2019-02-04 17:00:00 11.5 3 Sudoeste 10 Oeste 0 -- -- 23
2019-02-04 16:00:00 13.2 4 Sudoeste 14 Oeste 0 -- -- 18
2019-02-04 15:00:00 14.2 4 Sudoeste 9 Oeste 0 -- -- 14
2019-02-04 14:00:00 14 4 Sur 6 Sur 0 -- -- 15
2019-02-04 13:00:00 10.3 2 Sudeste 9 Sur 0 -- -- 17
2019-02-04 12:00:00 6.1 5 Sudoeste 11 Sudoeste 0 -- -- 25
2019-02-04 11:00:00 3.4 2 Sudeste 8 Nordeste 0 -- -- 37
2019-02-04 10:00:00 -1.4 3 Sur 6 Nordeste 0 -- -- 52
2019-02-04 09:00:00 -3 0 Calma 10 Sudoeste 0 -- -- 54
2019-02-04 08:00:00 -2.8 5 Sudoeste 11 Oeste 0 -- -- 55
2019-02-04 07:00:00 -4.9 0 Calma 8 Noroeste 0 -- -- 72
2019-02-04 06:00:00 -5.2 0 Calma 7 Norte 0 -- -- 69
2019-02-04 05:00:00 -4.7 0 Calma 6 Noroeste 0 -- -- 65
2019-02-04 04:00:00 -4 0 Calma 6 Noroeste 0 -- -- 56
2019-02-04 03:00:00 -2.7 0 Calma 8 Norte 0 -- -- 48
2019-02-04 02:00:00 -2.1 0 Calma 11 Norte 0 -- -- 44
2019-02-04 01:00:00 -0.2 3 Este 15 Nordeste 0 -- -- 35
2019-02-04 00:00:00 2.3 8 Nordeste 28 Norte 0 -- -- 28
2019-02-03 23:00:00 2.5 2 Oeste 30 Nordeste 0 -- -- 29
2019-02-03 22:00:00 3 9 Noroeste 39 Oeste 0 -- -- 30
2019-02-03 21:00:00 3 10 Norte 36 Noroeste 0 -- -- 29
2019-02-03 20:00:00 3 7 Norte 42 Nordeste 0 -- -- 29
2019-02-03 19:00:00 3.1 10 Nordeste 37 Norte 0 -- -- 30
2019-02-03 18:00:00 3.4 11 Norte 48 Norte 0 -- -- 30
2019-02-03 17:00:00 3.8 12 Norte 44 Norte 0 -- -- 30
2019-02-03 16:00:00 3.5 13 Norte 40 Nordeste 0 -- -- 31
2019-02-03 15:00:00 4.6 13 Norte 46 Norte 0 -- -- 29
2019-02-03 14:00:00 5.3 11 Norte 46 Norte 0 -- -- 27
2019-02-03 13:00:00 4.9 9 Nordeste 39 Oeste 0 -- -- 27
2019-02-03 12:00:00 3.9 14 Nordeste 51 Este 0 -- -- 28
2019-02-03 11:00:00 4.4 10 Este 41 Este 0 -- -- 28
2019-02-03 10:00:00 2.6 6 Nordeste 42 Norte 0 -- -- 30
2019-02-03 09:00:00 1.5 8 Nordeste 42 Norte 0 -- -- 30
2019-02-03 08:00:00 1.3 5 Nordeste 35 Este 0 -- -- 31
2019-02-03 07:00:00 1.4 3 Noroeste 34 Nordeste 0 -- -- 31
2019-02-03 06:00:00 1.4 2 Oeste 23 Noroeste 0 -- -- 34
2019-02-03 05:00:00 1.7 7 Nordeste 27 Noroeste 0 -- -- 35
2019-02-03 04:00:00 1.5 0 Calma 24 Este 0 -- -- 37
2019-02-03 03:00:00 1.7 2 Noroeste 23 Nordeste 0 -- -- 37
2019-02-03 02:00:00 1.7 2 Sudoeste 23 Sudeste 0 -- -- 35
2019-02-03 01:00:00 1.6 0 Calma 22 Norte 0 -- -- 37
2019-02-03 00:00:00 2.4 5 Nordeste 31 Norte 0 -- -- 35
2019-02-02 23:00:00 2.4 3 Noroeste 26 Nordeste 0 -- -- 35
2019-02-02 22:00:00 2.8 4 Norte 27 Este 0 -- -- 35
2019-02-02 21:00:00 3.2 4 Noroeste 26 Norte 0 -- -- 40
2019-02-02 20:00:00 2.9 2 Nordeste 24 Este 0 -- -- 49
2019-02-02 19:00:00 3.2 0 Calma 18 Sudeste 0 -- -- 47
2019-02-02 18:00:00 3.7 3 Sudoeste 20 Oeste 0 -- -- 46
2019-02-02 17:00:00 4.5 6 Nordeste 22 Este 0 -- -- 48
2019-02-02 16:00:00 4.8 0 Calma 19 Sudoeste 0.1 -- -- 60
2019-02-02 15:00:00 4.6 7 Sudoeste 23 Sudoeste 0 -- -- 70
2019-02-02 14:00:00 5.9 4 Norte 12 Noroeste 0 -- -- 71
2019-02-02 13:00:00 4.3 2 Sur 10 Sudoeste 0 -- -- 88
2019-02-02 12:00:00 3.1 3 Sudoeste 9 Sur 0 -- -- 97
2019-02-02 11:00:00 1.8 0 Calma 7 Sudoeste 0 -- -- 97
2019-02-02 10:00:00 1.2 3 Sudoeste 9 Sudoeste 0 -- -- 98
2019-02-02 09:00:00 0.9 0 Calma 6 Sudoeste 0 -- -- 97
2019-02-02 08:00:00 0.7 0 Calma 7 Sudoeste 0 -- -- 97
2019-02-02 07:00:00 0.8 3 Sur 5 Sur 0 -- -- 97
2019-02-02 06:00:00 0.8 0 Calma 6 Sudoeste 0 -- -- 96
2019-02-02 05:00:00 0.9 2 Sudoeste 5 Sudoeste 0 -- -- 96
2019-02-02 04:00:00 1 0 Calma 5 Nordeste 0 -- -- 96
2019-02-02 03:00:00 1.7 0 Calma 4 Sur 0 -- -- 95
2019-02-02 02:00:00 1.7 0 Calma 5 Norte 0 -- -- 95
2019-02-02 01:00:00 1.7 2 Nordeste 5 Nordeste 0 -- -- 94
2019-02-02 00:00:00 2 0 Calma 5 Nordeste 0 -- -- 93
2019-02-01 23:00:00 2.4 0 Calma 8 Este 0.8 -- -- 90
2019-02-01 22:00:00 3.7 0 Calma 15 Oeste 3.8 -- -- 87
2019-02-01 21:00:00 5.2 8 Oeste 22 Sudoeste 0.5 -- -- 74
2019-02-01 20:00:00 5.2 0 Calma 7 Sudoeste 0 -- -- 66
2019-02-01 19:00:00 5.9 0 Calma 8 Sudoeste 0 -- -- 55
2019-02-01 18:00:00 8.1 4 Sudoeste 22 Sur 0 -- -- 42
2019-02-01 17:00:00 10.4 4 Sudoeste 17 Sur 0 -- -- 40
2019-02-01 16:00:00 10.4 4 Sudoeste 21 Sur 0 -- -- 43
2019-02-01 15:00:00 11.4 7 Sudoeste 18 Sudoeste 0 -- -- 47
2019-02-01 14:00:00 9.1 6 Sudoeste 45 Oeste 0 -- -- 50
2019-02-01 13:00:00 11.2 8 Sudoeste 18 Sudoeste 0 -- -- 52
2019-02-01 12:00:00 7.8 4 Sur 8 Sur 0 -- -- 95
2019-02-01 11:00:00 6.2 3 Sudeste 6 Norte 0 -- -- 97
2019-02-01 10:00:00 4.1 2 Nordeste 6 Norte 0.1 -- -- 97
2019-02-01 09:00:00 3.5 0 Calma 6 Noroeste 0 -- -- 97
2019-02-01 08:00:00 3.3 3 Norte 5 Norte 1.7 -- -- 97
2019-02-01 07:00:00 3 3 Norte 6 Sudoeste 2 -- -- 98
2019-02-01 06:00:00 2.9 0 Calma 7 Norte 0.9 -- -- 97
2019-02-01 05:00:00 2.8 0 Calma 6 Norte 0.9 -- -- 98
2019-02-01 04:00:00 2.9 0 Calma 7 Este 0.2 -- -- 97
2019-02-01 03:00:00 2.9 0 Calma 6 Nordeste 0.9 -- -- 97
2019-02-01 02:00:00 2.6 0 Calma 6 Nordeste 0.1 -- -- 97
2019-02-01 01:00:00 2.7 0 Calma 5 Sur 0.1 -- -- 96
2019-02-01 00:00:00 3 0 Calma 5 Norte 0.2 -- -- 95
2019-01-31 23:00:00 3 2 Norte 4 Norte 0.2 -- -- 94
2019-01-31 22:00:00 3.1 0 Calma 6 Nordeste 0.2 -- -- 92
2019-01-31 21:00:00 3.4 2 Norte 5 Norte 0 -- -- 88
2019-01-31 20:00:00 3.9 0 Calma 8 Norte 0 -- -- 82
2019-01-31 19:00:00 4.3 0 Calma 5 Nordeste 0 -- -- 75
2019-01-31 18:00:00 5.5 0 Calma 7 Nordeste 0 -- -- 64
2019-01-31 17:00:00 7.3 2 Este 8 Nordeste 0 -- -- 52
2019-01-31 16:00:00 8.7 2 Este 6 Nordeste 0 -- -- 45
2019-01-31 15:00:00 9.2 2 Sur 6 Sur 0 -- -- 43
2019-01-31 14:00:00 7.5 3 Sur 6 Sur 0 -- -- 47
2019-01-31 13:00:00 3.4 3 Sur 5 Sur 0 -- -- 66
2019-01-31 12:00:00 2.3 3 Sur 6 Oeste 0 -- -- 78
2019-01-31 11:00:00 0 0 Calma 3 Sudoeste 0 -- -- 97
2019-01-31 10:00:00 -2.4 0 Calma 5 Noroeste 0 -- -- 97
2019-01-31 09:00:00 -4.6 0 Calma 4 Sudeste 0 -- -- 97
2019-01-31 08:00:00 -4.7 2 Norte 4 Nordeste 0 -- -- 97
2019-01-31 07:00:00 -4.1 0 Calma 4 Noroeste 0 -- -- 96
2019-01-31 06:00:00 -3.5 0 Calma 4 Norte 0 -- -- 96
2019-01-31 05:00:00 -2.5 0 Calma 5 Noroeste 0 -- -- 96
2019-01-31 04:00:00 -1.6 0 Calma 4 Norte 0 -- -- 96
2019-01-31 03:00:00 -1.1 0 Calma 6 Sudoeste 0 -- -- 95
2019-01-31 02:00:00 -0.8 0 Calma 4 Norte 0 -- -- 95
2019-01-31 01:00:00 -0.4 0 Calma 4 Norte 0 -- -- 93
2019-01-31 00:00:00 -0.2 0 Calma 5 Noroeste 0 -- -- 92
2019-01-30 23:00:00 0.3 2 Sudoeste 7 Sudoeste 0 -- -- 92
2019-01-30 22:00:00 1.1 0 Calma 6 Nordeste 0 -- -- 88
2019-01-30 21:00:00 2.1 0 Calma 4 Sudoeste 0 -- -- 84
2019-01-30 20:00:00 2.6 0 Calma 3 Sudoeste 0 -- -- 77
2019-01-30 19:00:00 3.6 0 Calma 11 Este 0 -- -- 65
2019-01-30 18:00:00 5 0 Calma 15 Sudoeste 0 -- -- 53
2019-01-30 17:00:00 7 6 Sudoeste 19 Sudoeste 0 -- -- 44
2019-01-30 16:00:00 8.8 6 Sudoeste 15 Sudoeste 0 -- -- 41
2019-01-30 15:00:00 7.9 3 Sudeste 6 Sudoeste 0 -- -- 44
2019-01-30 14:00:00 7.5 3 Sudeste 6 Este 0 -- -- 53
2019-01-30 13:00:00 4.7 2 Sur 6 Sur 0 -- -- 77
2019-01-30 12:00:00 0.2 2 Sur 6 Sudoeste 0 -- -- 98
2019-01-30 11:00:00 -2.4 0 Calma 6 Nordeste 0 -- -- 99
2019-01-30 10:00:00 -4.2 2 Nordeste 6 Sur 0 -- -- 99
2019-01-30 09:00:00 -5.4 2 Norte 6 Nordeste 0 -- -- 99
2019-01-30 08:00:00 -4.4 2 Este 6 Este 0 -- -- 99
2019-01-30 07:00:00 -3.4 0 Calma 5 Sudoeste 0 -- -- 99
2019-01-30 06:00:00 -2.9 0 Calma 5 Nordeste 0 -- -- 99
2019-01-30 05:00:00 -2.4 0 Calma 6 Sudeste 0 -- -- 99
2019-01-30 04:00:00 -2.1 2 Sudoeste 8 Sudoeste 0 -- -- 99
2019-01-30 03:00:00 -1.7 3 Sudoeste 8 Sudoeste 0 -- -- 98
2019-01-30 02:00:00 -2.1 0 Calma 6 Norte 0 -- -- 98
2019-01-30 01:00:00 -2.9 2 Norte 8 Norte 0 -- -- 98
2019-01-30 00:00:00 -3.5 2 Noroeste 9 Noroeste 0 -- -- 97
2019-01-29 23:00:00 -3.9 2 Nordeste 8 Noroeste 0 -- -- 96
2019-01-29 22:00:00 -3.3 0 Calma 6 Noroeste 0 -- -- 95
2019-01-29 21:00:00 -2.6 2 Nordeste 6 Norte 0 -- -- 94
2019-01-29 20:00:00 -1.5 0 Calma 4 Norte 0 -- -- 91
2019-01-29 19:00:00 0 0 Calma 3 Nordeste 0 -- -- 86
2019-01-29 18:00:00 1.6 0 Calma 4 Nordeste 0 -- -- 79
2019-01-29 17:00:00 2.5 3 Nordeste 5 Nordeste 0 -- -- 75
2019-01-29 16:00:00 3.6 0 Calma 3 Sudeste 0 -- -- 72
2019-01-29 15:00:00 2.9 0 Calma 8 Este 0 -- -- 77
2019-01-29 14:00:00 2.4 0 Calma 5 Norte 0 -- -- 83
2019-01-29 13:00:00 1.5 0 Calma 4 Sudoeste 0 -- -- 90
2019-01-29 12:00:00 0.2 3 Nordeste 4 Nordeste 0 -- -- 97
2019-01-29 11:00:00 -0.6 0 Calma 5 Norte 0 -- -- 97
2019-01-29 10:00:00 -2.3 0 Calma 5 Este 0 -- -- 98
2019-01-29 09:00:00 -3.7 2 Sudoeste 6 Nordeste 0 -- -- 98
2019-01-29 08:00:00 -4.3 0 Calma 7 Norte 0 -- -- 98
2019-01-29 07:00:00 -4.6 2 Norte 7 Nordeste 0 -- -- 98
2019-01-29 06:00:00 -4.2 0 Calma 5 Sur 0 -- -- 97
2019-01-29 05:00:00 -3.3 0 Calma 6 Nordeste 0 -- -- 97
2019-01-29 04:00:00 -1.8 0 Calma 9 Noroeste 0 -- -- 96
2019-01-29 03:00:00 -1.5 2 Nordeste 8 Nordeste 0 -- -- 95
2019-01-29 02:00:00 0 0 Calma 11 Sudoeste 0 -- -- 95
2019-01-29 01:00:00 0.8 3 Nordeste 12 Noroeste 0 -- -- 92
2019-01-29 00:00:00 2 3 Oeste 26 Norte 0 -- -- 92
2019-01-28 23:00:00 1.5 5 Norte 21 Norte 0 -- -- 98
2019-01-28 22:00:00 0.6 0 Calma 4 Nordeste 0.4 -- -- 98
2019-01-28 21:00:00 0.9 0 Calma 5 Nordeste 2.4 -- -- 97
2019-01-28 20:00:00 0.9 0 Calma 7 Este 2.5 -- -- 96
2019-01-28 19:00:00 1.5 5 Nordeste 9 Este 0.4 -- -- 96
2019-01-28 18:00:00 1.6 0 Calma 8 Sudoeste 0 -- -- 95
2019-01-28 17:00:00 2 5 Sudoeste 27 Oeste 0 -- -- 95
2019-01-28 16:00:00 1.4 2 Sudoeste 15 Sur 1.8 -- -- 95
2019-01-28 15:00:00 1.3 0 Calma 0 Calma 0.2 -- -- 95
2019-01-28 14:00:00 1.1 0 Calma 10 Sudoeste 0.6 -- -- 95
2019-01-28 13:00:00 0.8 3 Norte 9 Sudeste 2.6 -- -- 95
2019-01-28 12:00:00 0.6 0 Calma 5 Sudeste 0.9 -- -- 94
2019-01-28 11:00:00 0.1 2 Sudoeste 6 Sudoeste 1.8 -- -- 94
2019-01-28 10:00:00 0.1 0 Calma 5 Oeste 2.9 -- -- 92
2019-01-28 09:00:00 -0.2 0 Calma 9 Este 0.1 -- -- 86
2019-01-28 08:00:00 0.3 0 Calma 8 Sudoeste 0 -- -- 77
2019-01-28 07:00:00 -0.5 0 Calma 5 Sudeste 0 -- -- 79
2019-01-28 06:00:00 -0.8 0 Calma 6 Sudoeste 0 -- -- 76
2019-01-28 05:00:00 -0.5 2 Norte 6 Norte 0 -- -- 71
2019-01-28 04:00:00 -0.1 0 Calma 6 Nordeste 0 -- -- 64
2019-01-28 03:00:00 0.1 2 Nordeste 7 Oeste 0 -- -- 57
2019-01-28 02:00:00 2 0 Calma 8 Oeste 0 -- -- 49
2019-01-28 01:00:00 4.1 2 Noroeste 23 Oeste 0 -- -- 43
2019-01-28 00:00:00 5.3 10 Oeste 29 Sur 0 -- -- 43
2019-01-27 23:00:00 2.9 0 Calma 15 Sur 0 -- -- 46
2019-01-27 22:00:00 5.9 3 Sudoeste 34 Sudoeste 0 -- -- 38
2019-01-27 21:00:00 5.6 8 Sudoeste 26 Sudoeste 0 -- -- 38
2019-01-27 20:00:00 6 5 Noroeste 24 Sudoeste 0 -- -- 38
2019-01-27 19:00:00 5.6 9 Sudoeste 30 Sudoeste 0 -- -- 40
2019-01-27 18:00:00 6.4 10 Sudoeste 23 Sudoeste 0 -- -- 42
2019-01-27 17:00:00 6.3 9 Sudoeste 26 Oeste 0 -- -- 50
2019-01-27 16:00:00 8.4 7 Oeste 39 Norte 0 -- -- 35
2019-01-27 15:00:00 10.5 7 Noroeste 39 Nordeste 0 -- -- 32
2019-01-27 14:00:00 11.9 10 Noroeste 36 Noroeste 0 -- -- 31
2019-01-27 13:00:00 6.5 4 Este 11 Nordeste 0 -- -- 54
2019-01-27 12:00:00 3.5 5 Sudoeste 11 Oeste 0 -- -- 66
2019-01-27 11:00:00 -0.3 3 Nordeste 7 Nordeste 0 -- -- 96
2019-01-27 10:00:00 -2.6 2 Norte 5 Noroeste 0 -- -- 97
2019-01-27 09:00:00 -4.8 0 Calma 5 Nordeste 0 -- -- 98
2019-01-27 08:00:00 -4.4 0 Calma 8 Noroeste 0 -- -- 98
2019-01-27 07:00:00 -4.3 0 Calma 4 Norte 0 -- -- 97
2019-01-27 06:00:00 -4.3 0 Calma 4 Noroeste 0 -- -- 97
2019-01-27 05:00:00 -4.1 0 Calma 4 Norte 0 -- -- 96
2019-01-27 04:00:00 -3.4 0 Calma 4 Noroeste 0 -- -- 96
2019-01-27 03:00:00 -3 0 Calma 5 Nordeste 0 -- -- 95
2019-01-27 02:00:00 -2.6 0 Calma 3 Noroeste 0 -- -- 95
2019-01-27 01:00:00 -2 0 Calma 4 Sudeste 0 -- -- 94
2019-01-27 00:00:00 -1.7 0 Calma 3 Nordeste 0 -- -- 93
2019-01-26 23:00:00 -1 0 Calma 4 Sudeste 0 -- -- 92
2019-01-26 22:00:00 -0.4 0 Calma 4 Sur 0 -- -- 89
2019-01-26 21:00:00 0.6 0 Calma 3 Sur 0 -- -- 86
2019-01-26 20:00:00 1.9 0 Calma 3 Norte 0 -- -- 80
2019-01-26 19:00:00 4 0 Calma 3 Este 0 -- -- 70
2019-01-26 18:00:00 6.9 2 Sudoeste 5 Sudoeste 0 -- -- 55
2019-01-26 17:00:00 12.1 3 Sudoeste 9 Sudoeste 0 -- -- 41
2019-01-26 16:00:00 14.2 3 Sudoeste 10 Sudoeste 0 -- -- 35
2019-01-26 15:00:00 14.5 5 Sudoeste 9 Sur 0 -- -- 35
2019-01-26 14:00:00 12.7 4 Sudoeste 10 Oeste 0 -- -- 40
2019-01-26 13:00:00 8.5 2 Este 7 Sudoeste 0 -- -- 53
2019-01-26 12:00:00 4.9 4 Sudoeste 8 Sudoeste 0 -- -- 67
2019-01-26 11:00:00 0.9 0 Calma 5 Sur 0 -- -- 92
2019-01-26 10:00:00 -1.5 0 Calma 4 Sur 0 -- -- 95
2019-01-26 09:00:00 -3 0 Calma 4 Norte 0 -- -- 95
2019-01-26 08:00:00 -2.8 3 Norte 6 Nordeste 0 -- -- 94
2019-01-26 07:00:00 -2.4 0 Calma 5 Nordeste 0 -- -- 93
2019-01-26 06:00:00 -1.8 0 Calma 8 Norte 0 -- -- 91
2019-01-26 05:00:00 -1.2 0 Calma 8 Norte 0 -- -- 89
2019-01-26 04:00:00 -0.5 0 Calma 5 Nordeste 0 -- -- 85
2019-01-26 03:00:00 1 0 Calma 6 Nordeste 0 -- -- 77
2019-01-26 02:00:00 2.7 0 Calma 10 Este 0 -- -- 69
2019-01-26 01:00:00 4.6 3 Nordeste 18 Sudeste 0 -- -- 58
2019-01-26 00:00:00 5.6 4 Nordeste 25 Sudeste 0 -- -- 53
2019-01-25 23:00:00 9.8 3 Norte 32 Oeste 0 -- -- 42
2019-01-25 22:00:00 9.8 5 Sudoeste 21 Nordeste 0 -- -- 42
2019-01-25 21:00:00 10.2 3 Oeste 33 Noroeste 0 -- -- 41
2019-01-25 20:00:00 10.7 11 Norte 37 Nordeste 0 -- -- 40
2019-01-25 19:00:00 10.6 13 Norte 42 Nordeste 0 -- -- 41
2019-01-25 18:00:00 10.4 16 Nordeste 71 Nordeste 0 -- -- 42
2019-01-25 17:00:00 11 12 Norte 45 Nordeste 0 -- -- 41
2019-01-25 16:00:00 11.1 11 Norte 31 Nordeste 0 -- -- 42
2019-01-25 15:00:00 12.2 9 Nordeste 29 Nordeste 0 -- -- 42
2019-01-25 14:00:00 12.8 7 Norte 29 Norte 0 -- -- 41
2019-01-25 13:00:00 11.5 6 Norte 16 Noroeste 0 -- -- 42
2019-01-25 12:00:00 8.9 2 Norte 24 Nordeste 0 -- -- 47
2019-01-25 11:00:00 8.4 6 Norte 24 Norte 0 -- -- 48
2019-01-25 10:00:00 7.9 12 Norte 35 Norte 0 -- -- 49
2019-01-25 09:00:00 7 4 Norte 22 Este 0 -- -- 50
2019-01-25 08:00:00 5.6 5 Nordeste 25 Noroeste 0 -- -- 52
2019-01-25 07:00:00 4.9 4 Nordeste 21 Nordeste 0 -- -- 58
2019-01-25 06:00:00 -1.5 4 Nordeste 19 Nordeste 0 -- -- 85
2019-01-25 05:00:00 -6.3 2 Nordeste 12 Norte 0 -- -- 84
2019-01-25 04:00:00 -5.7 0 Calma 9 Noroeste 0 -- -- 81
2019-01-25 03:00:00 -6 0 Calma 11 Noroeste 0 -- -- 80
2019-01-25 02:00:00 -6.9 0 Calma 9 Nordeste 0 -- -- 82
2019-01-25 01:00:00 -6.9 0 Calma 12 Nordeste 0 -- -- 78
2019-01-25 00:00:00 -5.9 0 Calma 6 Norte 0 -- -- 75
2019-01-24 23:00:00 -5.3 0 Calma 10 Norte 0 -- -- 72
2019-01-24 22:00:00 -5 0 Calma 10 Nordeste 0 -- -- 71
2019-01-24 21:00:00 -4.1 0 Calma 10 Nordeste 0 -- -- 68
2019-01-24 20:00:00 -3.1 0 Calma 7 Sudoeste 0 -- -- 62
2019-01-24 19:00:00 -0.9 0 Calma 14 Oeste 0 -- -- 47
2019-01-24 18:00:00 1.4 6 Sudoeste 21 Norte 0 -- -- 38
2019-01-24 17:00:00 3.8 8 Norte 36 Norte 0 -- -- 33
2019-01-24 16:00:00 3.4 13 Norte 49 Norte 0 -- -- 34
2019-01-24 15:00:00 4.2 16 Norte 38 Norte 0 -- -- 33
2019-01-24 14:00:00 4.7 13 Norte 35 Norte 0 -- -- 36
2019-01-24 13:00:00 3.1 17 Norte 38 Norte 0 -- -- 39
2019-01-24 12:00:00 1.9 12 Noroeste 26 Norte 0 -- -- 52
2019-01-24 11:00:00 0.1 6 Norte 13 Nordeste 0 -- -- 78
2019-01-24 10:00:00 -3.1 0 Calma 0 Calma 0.1 -- -- 94
2019-01-24 09:00:00 -4.5 0 Calma 0 Calma 0 -- -- 96
2019-01-24 08:00:00 -3.6 0 Calma 0 Calma 0 -- -- 96
2019-01-24 07:00:00 -2.8 0 Calma 0 Calma 0 -- -- 96
2019-01-24 06:00:00 -2.2 0 Calma 0 Calma 0 -- -- 96
2019-01-24 05:00:00 -1.9 0 Calma 6 Este 0 -- -- 96
2019-01-24 04:00:00 -1.9 0 Calma 10 Este 0.1 -- -- 97
2019-01-24 03:00:00 -1.5 2 Nordeste 7 Este 0 -- -- 97
2019-01-24 02:00:00 -1.2 0 Calma 4 Nordeste 0.1 -- -- 97
2019-01-24 01:00:00 -0.9 0 Calma 0 Calma 0.1 -- -- 97
2019-01-24 00:00:00 -0.3 0 Calma 0 Calma 1.3 -- -- 96
2019-01-23 23:00:00 -0.1 0 Calma 6 Nordeste 0.6 -- -- 95
2019-01-23 22:00:00 0 0 Calma 9 Sudoeste 0.5 -- -- 91
2019-01-23 21:00:00 0.5 3 Oeste 23 Sudoeste 0 -- -- 91
2019-01-23 20:00:00 0.3 5 Sudoeste 17 Sur 0.4 -- -- 97
2019-01-23 19:00:00 0.4 4 Sudoeste 16 Oeste 0.2 -- -- 98
2019-01-23 18:00:00 0.1 0 Calma 7 Nordeste 0.4 -- -- 97
2019-01-23 17:00:00 0 0 Calma 6 Sur 0.9 -- -- 97
2019-01-23 16:00:00 -0.2 0 Calma 6 Sudeste 0.6 -- -- 95
2019-01-23 15:00:00 -0.3 0 Calma 5 Norte 0.6 -- -- 95
2019-01-23 14:00:00 -0.6 0 Calma 4 Nordeste 0.6 -- -- 95
2019-01-23 13:00:00 -0.9 4 Nordeste 5 Nordeste 0.2 -- -- 95
2019-01-23 12:00:00 -1.3 0 Calma 4 Sur 0.9 -- -- 96
2019-01-23 11:00:00 -2 0 Calma 7 Sudeste 1.7 -- -- 96
2019-01-23 10:00:00 -2.4 0 Calma 8 Sudoeste 2.8 -- -- 95
2019-01-23 09:00:00 -2.9 0 Calma 4 Sudoeste 2.8 -- -- 93
2019-01-23 08:00:00 -2.9 0 Calma 4 Nordeste 0.2 -- -- 89
2019-01-23 07:00:00 -2.7 0 Calma 4 Sur 0 -- -- 87
2019-01-23 06:00:00 -3.4 2 Norte 7 Nordeste 0 -- -- 89
2019-01-23 05:00:00 -4.1 2 Sudoeste 5 Sur 0 -- -- 89
2019-01-23 04:00:00 -4.3 0 Calma 4 Oeste 0 -- -- 88
2019-01-23 03:00:00 -4.3 0 Calma 3 Sudeste 0 -- -- 86
2019-01-23 02:00:00 -4.2 0 Calma 4 Nordeste 0 -- -- 84
2019-01-23 01:00:00 -3.8 0 Calma 3 Sur 0 -- -- 82
2019-01-23 00:00:00 -3.2 3 Nordeste 5 Nordeste 0 -- -- 77
2019-01-22 23:00:00 -2 0 Calma 7 Este 0 -- -- 71
2019-01-22 22:00:00 -1.1 0 Calma 5 Sudoeste 0 -- -- 69
2019-01-22 21:00:00 -0.2 2 Sudoeste 6 Nordeste 0 -- -- 66
2019-01-22 20:00:00 0.1 0 Calma 6 Este 0 -- -- 64
2019-01-22 19:00:00 1 0 Calma 5 Norte 0 -- -- 55
2019-01-22 18:00:00 2.9 3 Sudoeste 5 Oeste 0 -- -- 43
2019-01-22 17:00:00 4.7 0 Calma 4 Sudoeste 0 -- -- 35
2019-01-22 16:00:00 5.2 0 Calma 4 Sur 0 -- -- 36
2019-01-22 15:00:00 4.4 0 Calma 5 Sur 0 -- -- 39
2019-01-22 14:00:00 3.7 3 Sudoeste 6 Noroeste 0 -- -- 41
2019-01-22 13:00:00 2.4 2 Sudoeste 7 Sudoeste 0 -- -- 48
2019-01-22 12:00:00 -0.1 0 Calma 7 Sur 0 -- -- 62
2019-01-22 11:00:00 -2.3 0 Calma 12 Sudoeste 0 -- -- 73
2019-01-22 10:00:00 -4.4 3 Sudoeste 8 Sudoeste 0 -- -- 85
2019-01-22 09:00:00 -6.7 2 Sudoeste 7 Noroeste 0 -- -- 92
2019-01-22 08:00:00 -7.6 0 Calma 6 Sur 0 -- -- 92
2019-01-22 07:00:00 -7.9 2 Sur 6 Norte 0 -- -- 92
2019-01-22 06:00:00 -7.4 0 Calma 5 Noroeste 0 -- -- 90
2019-01-22 05:00:00 -6.7 0 Calma 5 Sur 0 -- -- 89
2019-01-22 04:00:00 -6.1 0 Calma 5 Sudoeste 0 -- -- 87
2019-01-22 03:00:00 -6.1 2 Nordeste 5 Norte 0 -- -- 86
2019-01-22 02:00:00 -5 0 Calma 7 Nordeste 0 -- -- 83
2019-01-22 01:00:00 -4.2 0 Calma 6 Noroeste 0 -- -- 80
2019-01-22 00:00:00 -3.7 0 Calma 6 Norte 0 -- -- 75
2019-01-21 23:00:00 -2.8 0 Calma 5 Sudoeste 0 -- -- 72
2019-01-21 22:00:00 -1.9 2 Sudoeste 7 Sudoeste 0 -- -- 68
2019-01-21 21:00:00 -1.3 0 Calma 8 Norte 0 -- -- 65
2019-01-21 20:00:00 0 0 Calma 7 Oeste 0 -- -- 57
2019-01-21 19:00:00 1.7 4 Sudoeste 8 Oeste 0 -- -- 50
2019-01-21 18:00:00 4.5 2 Sudoeste 13 Norte 0 -- -- 38
2019-01-21 17:00:00 8.6 6 Noroeste 17 Noroeste 0 -- -- 30
2019-01-21 16:00:00 8.2 7 Norte 19 Norte 0 -- -- 31
2019-01-21 15:00:00 9.3 9 Norte 22 Norte 0 -- -- 30
2019-01-21 14:00:00 9.1 6 Nordeste 19 Norte 0 -- -- 33
2019-01-21 13:00:00 7.2 3 Sudoeste 12 Sudoeste 0 -- -- 57
2019-01-21 12:00:00 2.4 3 Sudoeste 8 Sudoeste 0 -- -- 83
2019-01-21 11:00:00 -0.8 0 Calma 5 Este 0 -- -- 96
2019-01-21 10:00:00 -3.4 2 Sudoeste 6 Sudoeste 0 -- -- 97
2019-01-21 09:00:00 -5 0 Calma 4 Noroeste 0 -- -- 96
2019-01-21 08:00:00 -5.2 0 Calma 4 Noroeste 0 -- -- 96
2019-01-21 07:00:00 -4.8 0 Calma 4 Noroeste 0 -- -- 95
2019-01-21 06:00:00 -4.6 0 Calma 5 Nordeste 0 -- -- 95
2019-01-21 05:00:00 -3.8 0 Calma 4 Norte 0 -- -- 95
2019-01-21 04:00:00 -3.2 0 Calma 4 Sur 0 -- -- 94
2019-01-21 03:00:00 -2.9 0 Calma 6 Nordeste 0 -- -- 92
2019-01-21 02:00:00 -2.5 0 Calma 6 Nordeste 0 -- -- 91
2019-01-21 01:00:00 -1.6 2 Sudoeste 6 Nordeste 0 -- -- 89
2019-01-21 00:00:00 -0.6 2 Sudoeste 6 Sudoeste 0 -- -- 86
2019-01-20 23:00:00 0 0 Calma 7 Noroeste 0 -- -- 82
2019-01-20 22:00:00 0.7 0 Calma 6 Nordeste 0 -- -- 79
2019-01-20 21:00:00 1.2 0 Calma 8 Sudeste 0 -- -- 72
2019-01-20 20:00:00 3.4 4 Sudoeste 14 Este 0 -- -- 58
2019-01-20 19:00:00 5.2 5 Este 12 Este 0 -- -- 49
2019-01-20 18:00:00 7 4 Este 17 Este 0 -- -- 44
2019-01-20 17:00:00 9.8 4 Sudoeste 16 Nordeste 0 -- -- 42
2019-01-20 16:00:00 10.1 5 Nordeste 14 Nordeste 0 -- -- 43
2019-01-20 15:00:00 10.5 6 Sudoeste 13 Sudoeste 0 -- -- 48
2019-01-20 14:00:00 8.8 5 Oeste 13 Sudoeste 0 -- -- 53
2019-01-20 13:00:00 5.5 3 Sudoeste 9 Sudoeste 0 -- -- 81
2019-01-20 12:00:00 2.3 3 Sudoeste 6 Este 0 -- -- 94
2019-01-20 11:00:00 1 2 Sudoeste 5 Sur 0 -- -- 98
2019-01-20 10:00:00 0.1 0 Calma 3 Norte 0 -- -- 98
2019-01-20 09:00:00 -0.6 0 Calma 5 Sudeste 0 -- -- 98
2019-01-20 08:00:00 -0.6 0 Calma 3 Sudeste 0 -- -- 97
2019-01-20 07:00:00 -0.8 2 Norte 3 Norte 0 -- -- 98
2019-01-20 06:00:00 -0.4 2 Nordeste 3 Nordeste 0.2 -- -- 97
2019-01-20 05:00:00 -0.4 0 Calma 2 Sudeste 0.3 -- -- 96
2019-01-20 04:00:00 -0.5 0 Calma 3 Nordeste 0 -- -- 95
2019-01-20 03:00:00 -0.6 0 Calma 4 Este 0 -- -- 93
2019-01-20 02:00:00 -0.4 0 Calma 5 Sudoeste 0 -- -- 92
2019-01-20 01:00:00 -0.7 2 Nordeste 4 Nordeste 0 -- -- 91
2019-01-20 00:00:00 -1.1 2 Norte 5 Nordeste 0 -- -- 91
2019-01-19 23:00:00 -1.5 2 Norte 4 Norte 0 -- -- 90
2019-01-19 22:00:00 -1.8 0 Calma 4 Norte 0 -- -- 88
2019-01-19 21:00:00 -1.2 0 Calma 3 Sur 0 -- -- 84
2019-01-19 20:00:00 -0.6 0 Calma 4 Este 0 -- -- 79
2019-01-19 19:00:00 1 0 Calma 4 Sudoeste 0 -- -- 70
2019-01-19 18:00:00 3.8 3 Sudoeste 10 Oeste 0 -- -- 58
2019-01-19 17:00:00 6.4 5 Sudoeste 8 Oeste 0 -- -- 47
2019-01-19 16:00:00 8.3 3 Oeste 8 Sudoeste 0 -- -- 40
2019-01-19 15:00:00 9.3 4 Sudoeste 10 Sudoeste 0 -- -- 36
2019-01-19 14:00:00 8.2 4 Sudoeste 10 Sur 0 -- -- 39
2019-01-19 13:00:00 4.4 3 Sudoeste 8 Sudoeste 0 -- -- 54
2019-01-19 12:00:00 0.1 0 Calma 6 Sur 0 -- -- 77
2019-01-19 11:00:00 -2.7 3 Sudoeste 6 Sur 0 -- -- 94
2019-01-19 10:00:00 -5.1 0 Calma 5 Norte 0 -- -- 97
2019-01-19 09:00:00 -6.7 0 Calma 5 Noroeste 0 -- -- 97
2019-01-19 08:00:00 -6.7 0 Calma 4 Sur 0 -- -- 96
2019-01-19 07:00:00 -7 0 Calma 4 Noroeste 0 -- -- 96
2019-01-19 06:00:00 -6.5 0 Calma 3 Noroeste 0 -- -- 96
2019-01-19 05:00:00 -6.2 3 Nordeste 4 Nordeste 0 -- -- 95
2019-01-19 04:00:00 -5.6 0 Calma 3 Norte 0 -- -- 95
2019-01-19 03:00:00 -4.8 0 Calma 4 Nordeste 0 -- -- 94
2019-01-19 02:00:00 -3.9 0 Calma 3 Este 0 -- -- 93
2019-01-19 01:00:00 -3.2 0 Calma 3 Nordeste 0 -- -- 92
2019-01-19 00:00:00 -2.7 0 Calma 3 Norte 0 -- -- 90